KIRK

Kirksville Regional Airport

Kirksville, Missouri, USA
METAR KIRK 231055Z AUTO 11003KT 10SM CLR 17/16 A3011 RMK AO2 SLP193 T01670161
Observed Flight Rules
May-23 @ 10:55 UTC (22 minutes ago) Visual Flight Rules
Wind Visibility Clouds
110° at 3 knots 10 miles
  • Clear skies
Temperatures Readings
Current 17°C / 63°F
Dewpoint 16°C / 61°F
Humidity 94%
Altimeter 30.11" Hg
Pressure 1019.3 hPa
Elevation 293
METAR KIRK 231055Z AUTO 11003KT 10SM CLR 17/16 A3011 RMK AO2 SLP193 T01670161
Observed Flight Rules
May-23 @ 10:55 UTC
(22 minutes ago)
VFR
Wind Visibility
110° at 3 knots 10 miles
Clouds
  • Clear skies
Temperature Dewpoint
17°C / 63°F 16°C / 61°F
Humidity Altimeter Pressure
94% 30.11" Hg 1019.3 hPa